createdAt,value
2017-01-16T00:00:45.736Z,0
2017-01-16T00:01:45.747Z,0
2017-01-16T00:02:45.357Z,0
2017-01-16T00:03:45.016Z,0
2017-01-16T00:04:45.778Z,0
2017-01-16T00:05:44.984Z,0
2017-01-16T00:06:45.397Z,0
2017-01-16T00:07:45.804Z,0
2017-01-16T00:08:45.822Z,0
2017-01-16T00:09:45.436Z,0
2017-01-16T00:10:46.242Z,0
2017-01-16T00:11:45.849Z,0
2017-01-16T00:12:45.866Z,0
2017-01-16T00:13:45.475Z,0
2017-01-16T00:14:45.083Z,0
2017-01-16T00:15:45.517Z,0
2017-01-16T00:16:45.504Z,0
2017-01-16T00:17:45.915Z,0
2017-01-16T00:18:46.324Z,0
2017-01-16T00:19:45.536Z,0
2017-01-16T00:20:45.146Z,0
2017-01-16T00:21:45.556Z,0
2017-01-16T00:22:45.570Z,0
2017-01-16T00:23:45.979Z,0
2017-01-16T00:24:45.193Z,0
2017-01-16T00:25:46.397Z,0
2017-01-16T00:26:46.014Z,0
2017-01-16T00:27:45.622Z,0
2017-01-16T00:28:45.266Z,0
2017-01-16T00:29:45.241Z,0
2017-01-16T00:30:45.676Z,0
2017-01-16T00:31:45.266Z,0
2017-01-16T00:32:45.675Z,0
2017-01-16T00:33:46.087Z,0
2017-01-16T00:34:46.094Z,0
2017-01-16T00:35:46.124Z,0
2017-01-16T00:36:45.719Z,0
2017-01-16T00:37:46.129Z,0
2017-01-16T00:38:46.535Z,0
2017-01-16T00:39:45.350Z,0
2017-01-16T00:40:45.363Z,0
2017-01-16T00:41:46.172Z,0
2017-01-16T00:42:46.180Z,0
2017-01-16T00:43:46.191Z,0
2017-01-16T00:44:45.411Z,0
2017-01-16T00:45:45.811Z,0
2017-01-16T00:46:46.251Z,0
2017-01-16T00:47:45.859Z,0
2017-01-16T00:48:45.849Z,0
2017-01-16T00:49:46.656Z,0
2017-01-16T00:50:45.867Z,0
2017-01-16T00:51:46.275Z,0
2017-01-16T00:52:45.889Z,0
2017-01-16T00:53:45.900Z,0
2017-01-16T00:54:45.515Z,0
2017-01-16T00:55:46.326Z,0
2017-01-16T00:56:46.328Z,0
2017-01-16T00:57:45.541Z,0
2017-01-16T00:58:46.754Z,0
2017-01-16T00:59:46.760Z,0
2017-01-16T01:00:45.582Z,0
2017-01-16T01:01:45.991Z,0
2017-01-16T01:02:46.395Z,0
2017-01-16T01:03:46.406Z,0
2017-01-16T01:04:46.020Z,0
2017-01-16T01:05:46.485Z,0
2017-01-16T01:06:46.442Z,0
2017-01-16T01:07:45.653Z,0
2017-01-16T01:08:46.060Z,0
2017-01-16T01:09:45.670Z,0
2017-01-16T01:10:46.136Z,0
2017-01-16T01:11:46.492Z,0
2017-01-16T01:12:46.504Z,0
2017-01-16T01:13:46.116Z,0
2017-01-16T01:14:46.520Z,0
2017-01-16T01:15:45.802Z,0
2017-01-16T01:16:46.145Z,0
2017-01-16T01:17:45.758Z,0
2017-01-16T01:18:46.567Z,0
2017-01-16T01:19:46.579Z,0
2017-01-16T01:20:46.983Z,0
2017-01-16T01:21:45.811Z,0
2017-01-16T01:22:46.217Z,0
2017-01-16T01:23:46.621Z,0
2017-01-16T01:24:46.232Z,0
2017-01-16T01:25:46.241Z,0
2017-01-16T01:26:46.252Z,0
2017-01-16T01:27:46.659Z,0
2017-01-16T01:28:45.876Z,0
2017-01-16T01:29:45.888Z,0
2017-01-16T01:30:46.698Z,0
2017-01-16T01:31:46.766Z,0
2017-01-16T01:32:46.322Z,0
2017-01-16T01:33:46.353Z,0
2017-01-16T01:34:46.739Z,0
2017-01-16T01:35:46.749Z,0
2017-01-16T01:36:46.356Z,0
2017-01-16T01:37:47.220Z,0
2017-01-16T01:38:45.985Z,0
2017-01-16T01:39:46.394Z,0
2017-01-16T01:40:46.441Z,0
2017-01-16T01:41:46.426Z,0
2017-01-16T01:42:46.873Z,0
2017-01-16T01:43:46.864Z,0
2017-01-16T01:44:46.842Z,0
2017-01-16T01:45:46.852Z,0
2017-01-16T01:46:46.468Z,0
2017-01-16T01:47:46.479Z,0
2017-01-16T01:48:46.887Z,0
2017-01-16T01:49:46.497Z,0
2017-01-16T01:50:46.908Z,0
2017-01-16T01:51:46.916Z,0
2017-01-16T01:52:46.926Z,0
2017-01-16T01:53:47.337Z,0
2017-01-16T01:54:46.559Z,0
2017-01-16T01:55:46.961Z,0
2017-01-16T01:56:46.573Z,0
2017-01-16T01:57:46.586Z,0
2017-01-16T01:58:47.409Z,0
2017-01-16T01:59:47.028Z,0
2017-01-16T02:00:47.033Z,0
2017-01-16T02:01:46.630Z,0
2017-01-16T02:02:47.034Z,0
2017-01-16T02:03:46.648Z,0
2017-01-16T02:04:46.657Z,0
2017-01-16T02:05:46.670Z,0
2017-01-16T02:06:46.287Z,0
2017-01-16T02:07:46.716Z,0
2017-01-16T02:08:46.701Z,0
2017-01-16T02:09:47.141Z,0
2017-01-16T02:10:47.128Z,0
2017-01-16T02:11:47.133Z,0
2017-01-16T02:12:46.745Z,0
2017-01-16T02:13:46.757Z,0
2017-01-16T02:14:47.166Z,0
2017-01-16T02:15:47.176Z,0
2017-01-16T02:16:46.790Z,0
2017-01-16T02:17:46.799Z,0
2017-01-16T02:18:46.812Z,0
2017-01-16T02:19:47.221Z,0
2017-01-16T02:20:46.833Z,0
2017-01-16T02:21:47.237Z,0
2017-01-16T02:22:47.252Z,0
2017-01-16T02:23:46.467Z,0
2017-01-16T02:24:46.876Z,0
2017-01-16T02:25:47.286Z,0
2017-01-16T02:26:47.716Z,0
2017-01-16T02:27:47.703Z,0
2017-01-16T02:28:47.315Z,0
2017-01-16T02:29:46.933Z,0
2017-01-16T02:30:46.940Z,0
2017-01-16T02:31:46.953Z,0
2017-01-16T02:32:47.367Z,0
2017-01-16T02:33:46.974Z,0
2017-01-16T02:34:46.984Z,0
2017-01-16T02:35:47.393Z,0
2017-01-16T02:36:47.426Z,0
2017-01-16T02:37:46.614Z,0
2017-01-16T02:38:46.626Z,0
2017-01-16T02:39:47.436Z,0
2017-01-16T02:40:47.045Z,0
2017-01-16T02:41:47.458Z,0
2017-01-16T02:42:47.468Z,0
2017-01-16T02:43:47.476Z,0
2017-01-16T02:44:47.489Z,0
2017-01-16T02:45:47.525Z,0
2017-01-16T02:46:47.116Z,0
2017-01-16T02:47:47.124Z,0
2017-01-16T02:48:47.135Z,0
2017-01-16T02:49:47.142Z,0
2017-01-16T02:50:47.953Z,0
2017-01-16T02:51:47.782Z,0
2017-01-16T02:52:48.263Z,0
2017-01-16T02:53:47.588Z,0
2017-01-16T02:54:47.201Z,0
2017-01-16T02:55:47.208Z,0
2017-01-16T02:56:47.220Z,0
2017-01-16T02:57:48.032Z,0
2017-01-16T02:58:47.641Z,0
2017-01-16T02:59:47.700Z,0
2017-01-16T03:00:46.870Z,0
2017-01-16T03:01:47.674Z,0
2017-01-16T03:02:47.685Z,0
2017-01-16T03:03:46.891Z,0
2017-01-16T03:04:47.708Z,0
2017-01-16T03:05:48.118Z,0
2017-01-16T03:06:47.728Z,0
2017-01-16T03:07:46.941Z,0
2017-01-16T03:08:48.151Z,0
2017-01-16T03:09:47.360Z,0
2017-01-16T03:10:47.818Z,0
2017-01-16T03:11:47.780Z,0
2017-01-16T03:12:47.841Z,0
2017-01-16T03:13:47.403Z,0
2017-01-16T03:14:47.435Z,0
2017-01-16T03:15:47.483Z,0
2017-01-16T03:16:47.840Z,0
2017-01-16T03:17:47.448Z,0
2017-01-16T03:18:47.453Z,0
2017-01-16T03:19:47.076Z,0
2017-01-16T03:20:47.090Z,0
2017-01-16T03:21:47.489Z,0
2017-01-16T03:22:48.299Z,0
2017-01-16T03:23:47.110Z,0
2017-01-16T03:24:48.320Z,0
2017-01-16T03:25:47.185Z,0
2017-01-16T03:26:47.545Z,0
2017-01-16T03:27:47.950Z,0
2017-01-16T03:28:47.964Z,0
2017-01-16T03:29:48.374Z,0
2017-01-16T03:30:47.241Z,0
2017-01-16T03:31:47.600Z,0
2017-01-16T03:32:47.207Z,0
2017-01-16T03:33:47.620Z,0
2017-01-16T03:34:48.028Z,0
2017-01-16T03:35:48.086Z,0
2017-01-16T03:36:48.074Z,0
2017-01-16T03:37:48.061Z,0
2017-01-16T03:38:48.467Z,0
2017-01-16T03:39:47.278Z,0
2017-01-16T03:40:47.691Z,0
2017-01-16T03:41:47.700Z,0
2017-01-16T03:42:48.114Z,0
2017-01-16T03:43:47.745Z,0
2017-01-16T03:44:47.334Z,0
2017-01-16T03:45:47.748Z,0
2017-01-16T03:46:48.151Z,0
2017-01-16T03:47:48.166Z,0
2017-01-16T03:48:48.174Z,0
2017-01-16T03:49:48.187Z,0
2017-01-16T03:50:47.799Z,0
2017-01-16T03:51:48.209Z,0
2017-01-16T03:52:48.219Z,0
2017-01-16T03:53:47.845Z,0
2017-01-16T03:54:48.637Z,0
2017-01-16T03:55:47.854Z,0
2017-01-16T03:56:48.658Z,0
2017-01-16T03:57:47.474Z,0
2017-01-16T03:58:48.282Z,0
2017-01-16T03:59:47.892Z,0
2017-01-16T04:00:47.912Z,0
2017-01-16T04:01:48.313Z,0
2017-01-16T04:02:47.925Z,0
2017-01-16T04:03:48.336Z,0
2017-01-16T04:04:47.549Z,0
2017-01-16T04:05:47.588Z,0
2017-01-16T04:06:48.367Z,0
2017-01-16T04:07:48.004Z,0
2017-01-16T04:08:47.592Z,0
2017-01-16T04:09:47.601Z,0
2017-01-16T04:10:47.612Z,0
2017-01-16T04:11:48.025Z,0
2017-01-16T04:12:48.828Z,0
2017-01-16T04:13:48.047Z,0
2017-01-16T04:14:47.658Z,0
2017-01-16T04:15:48.064Z,0
2017-01-16T04:16:48.075Z,0
2017-01-16T04:17:48.115Z,0
2017-01-16T04:18:47.696Z,0
2017-01-16T04:19:48.505Z,0
2017-01-16T04:20:48.116Z,0
2017-01-16T04:21:47.729Z,0
2017-01-16T04:22:47.739Z,0
2017-01-16T04:23:48.151Z,0
2017-01-16T04:24:48.216Z,0
2017-01-16T04:25:48.564Z,0
2017-01-16T04:26:48.189Z,0
2017-01-16T04:27:48.189Z,0
2017-01-16T04:28:48.610Z,0
2017-01-16T04:29:47.811Z,0
2017-01-16T04:30:48.220Z,0
2017-01-16T04:31:48.231Z,0
2017-01-16T04:32:47.844Z,0
2017-01-16T04:33:48.255Z,0
2017-01-16T04:34:49.063Z,0
2017-01-16T04:35:48.274Z,0
2017-01-16T04:36:48.283Z,0
2017-01-16T04:37:48.291Z,0
2017-01-16T04:38:48.699Z,0
2017-01-16T04:39:48.315Z,0
2017-01-16T04:40:48.776Z,0
2017-01-16T04:41:48.335Z,0
2017-01-16T04:42:48.745Z,0
2017-01-16T04:43:48.360Z,0
2017-01-16T04:44:48.367Z,0
2017-01-16T04:45:48.379Z,0
2017-01-16T04:46:49.188Z,0
2017-01-16T04:47:48.398Z,0
2017-01-16T04:48:48.404Z,0
2017-01-16T04:49:49.219Z,0
2017-01-16T04:50:48.430Z,0
2017-01-16T04:51:48.438Z,0
2017-01-16T04:52:48.845Z,0
2017-01-16T04:53:48.067Z,0
2017-01-16T04:54:48.471Z,0
2017-01-16T04:55:48.488Z,0
2017-01-16T04:56:48.490Z,0
2017-01-16T04:57:49.301Z,0
2017-01-16T04:58:48.510Z,0
2017-01-16T04:59:48.523Z,0
2017-01-16T05:00:49.331Z,0
2017-01-16T05:01:48.945Z,0
2017-01-16T05:02:48.956Z,0
2017-01-16T05:03:48.563Z,0
2017-01-16T05:04:48.975Z,0
2017-01-16T05:05:48.585Z,0
2017-01-16T05:06:48.602Z,0
2017-01-16T05:07:49.006Z,0
2017-01-16T05:08:48.620Z,0
2017-01-16T05:09:48.627Z,0
2017-01-16T05:10:48.637Z,0
2017-01-16T05:11:48.653Z,0
2017-01-16T05:12:49.076Z,0
2017-01-16T05:13:49.094Z,0
2017-01-16T05:14:48.679Z,0
2017-01-16T05:15:48.698Z,0
2017-01-16T05:16:49.106Z,0
2017-01-16T05:17:49.113Z,0
2017-01-16T05:18:48.326Z,0
2017-01-16T05:19:48.744Z,0
2017-01-16T05:20:48.753Z,0
2017-01-16T05:21:49.551Z,0
2017-01-16T05:22:48.765Z,0
2017-01-16T05:23:48.777Z,0
2017-01-16T05:24:48.783Z,0
2017-01-16T05:25:48.797Z,0
2017-01-16T05:26:49.253Z,0
2017-01-16T05:27:48.833Z,0
2017-01-16T05:28:48.827Z,0
2017-01-16T05:29:49.238Z,0
2017-01-16T05:30:48.852Z,0
2017-01-16T05:31:48.911Z,0
2017-01-16T05:32:49.272Z,0
2017-01-16T05:33:49.285Z,0
2017-01-16T05:34:48.889Z,0
2017-01-16T05:35:49.698Z,0
2017-01-16T05:36:49.310Z,0
2017-01-16T05:37:48.922Z,0
2017-01-16T05:38:49.330Z,0
2017-01-16T05:39:48.942Z,0
2017-01-16T05:40:49.788Z,0
2017-01-16T05:41:49.364Z,0
2017-01-16T05:42:48.584Z,0
2017-01-16T05:43:48.988Z,0
2017-01-16T05:44:49.412Z,0
2017-01-16T05:45:49.006Z,0
2017-01-16T05:46:49.812Z,0
2017-01-16T05:47:48.627Z,0
2017-01-16T05:48:49.442Z,0
2017-01-16T05:49:48.650Z,0
2017-01-16T05:50:49.466Z,0
2017-01-16T05:51:48.672Z,0
2017-01-16T05:52:49.881Z,0
2017-01-16T05:53:49.109Z,0
2017-01-16T05:54:49.503Z,0
2017-01-16T05:55:48.717Z,0
2017-01-16T05:56:49.521Z,0
2017-01-16T05:57:49.536Z,0
2017-01-16T05:58:49.553Z,0
2017-01-16T05:59:49.556Z,0
2017-01-16T06:00:49.562Z,0
2017-01-16T06:01:49.572Z,0
2017-01-16T06:02:49.609Z,0
2017-01-16T06:03:49.203Z,0
2017-01-16T06:04:49.206Z,0
2017-01-16T06:05:49.222Z,0
2017-01-16T06:06:49.229Z,0
2017-01-16T06:07:49.668Z,0
2017-01-16T06:08:49.646Z,0
2017-01-16T06:09:49.262Z,0
2017-01-16T06:10:49.277Z,0
2017-01-16T06:11:49.284Z,0
2017-01-16T06:12:48.904Z,0
2017-01-16T06:13:49.308Z,0
2017-01-16T06:14:50.117Z,0
2017-01-16T06:15:50.128Z,0
2017-01-16T06:16:49.738Z,0
2017-01-16T06:17:49.765Z,0
2017-01-16T06:18:49.756Z,0
2017-01-16T06:19:49.767Z,0
2017-01-16T06:20:49.380Z,0
2017-01-16T06:21:49.789Z,0
2017-01-16T06:22:50.199Z,0
2017-01-16T06:23:49.806Z,0
2017-01-16T06:24:49.921Z,0
2017-01-16T06:25:49.431Z,0
2017-01-16T06:26:49.442Z,0
2017-01-16T06:27:49.450Z,0
2017-01-16T06:28:49.859Z,0
2017-01-16T06:29:50.327Z,0
2017-01-16T06:30:49.889Z,0
2017-01-16T06:31:49.094Z,0
2017-01-16T06:32:50.303Z,0
2017-01-16T06:33:49.526Z,0
2017-01-16T06:34:50.000Z,0
2017-01-16T06:35:49.536Z,0
2017-01-16T06:36:49.150Z,0
2017-01-16T06:37:49.961Z,0
2017-01-16T06:38:49.568Z,0
2017-01-16T06:39:49.628Z,0
2017-01-16T06:40:49.590Z,0
2017-01-16T06:41:49.603Z,4
2017-01-16T06:42:49.611Z,4
2017-01-16T06:43:49.622Z,0
2017-01-16T06:44:49.642Z,0
2017-01-16T06:45:50.046Z,4
2017-01-16T06:46:50.054Z,4
2017-01-16T06:47:49.666Z,4
2017-01-16T06:48:50.075Z,0
2017-01-16T06:49:49.738Z,4
2017-01-16T06:50:49.698Z,4
2017-01-16T06:51:49.717Z,8
2017-01-16T06:52:49.718Z,4
2017-01-16T06:53:50.127Z,8
2017-01-16T06:54:49.800Z,4
2017-01-16T06:55:50.143Z,8
2017-01-16T06:56:49.758Z,8
2017-01-16T06:57:50.569Z,8
2017-01-16T06:58:49.381Z,12
2017-01-16T06:59:50.597Z,8
2017-01-16T07:00:49.805Z,12
2017-01-16T07:01:50.620Z,16
2017-01-16T07:02:50.228Z,16
2017-01-16T07:03:49.840Z,16
2017-01-16T07:04:50.646Z,20
2017-01-16T07:05:49.469Z,20
2017-01-16T07:06:49.488Z,24
2017-01-16T07:07:49.878Z,24
2017-01-16T07:08:49.932Z,24
2017-01-16T07:09:50.302Z,28
2017-01-16T07:10:49.915Z,32
2017-01-16T07:11:50.318Z,32
2017-01-16T07:12:49.540Z,32
2017-01-16T07:13:49.550Z,36
2017-01-16T07:14:50.356Z,40
2017-01-16T07:15:50.763Z,44
2017-01-16T07:16:49.974Z,44
2017-01-16T07:17:50.385Z,44
2017-01-16T07:18:50.794Z,44
2017-01-16T07:19:50.018Z,48
2017-01-16T07:20:50.417Z,48
2017-01-16T07:21:49.630Z,48
2017-01-16T07:22:50.448Z,52
2017-01-16T07:23:50.048Z,60
2017-01-16T07:24:50.453Z,60
2017-01-16T07:25:50.466Z,60
2017-01-16T07:26:50.480Z,60
2017-01-16T07:27:50.942Z,64
2017-01-16T07:28:50.103Z,68
2017-01-16T07:29:49.714Z,68
2017-01-16T07:30:50.538Z,68
2017-01-16T07:31:50.934Z,76
2017-01-16T07:32:50.141Z,80
2017-01-16T07:33:50.151Z,88
2017-01-16T07:34:50.563Z,96
2017-01-16T07:35:50.186Z,108
2017-01-16T07:36:50.185Z,116
2017-01-16T07:37:50.591Z,120
2017-01-16T07:38:51.007Z,124
2017-01-16T07:39:50.238Z,128
2017-01-16T07:40:49.828Z,136
2017-01-16T07:41:51.035Z,136
2017-01-16T07:42:50.348Z,152
2017-01-16T07:43:50.265Z,156
2017-01-16T07:44:50.267Z,164
2017-01-16T07:45:50.678Z,164
2017-01-16T07:46:50.691Z,164
2017-01-16T07:47:50.696Z,160
2017-01-16T07:48:50.367Z,164
2017-01-16T07:49:50.319Z,168
2017-01-16T07:50:50.333Z,176
2017-01-16T07:51:50.750Z,188
2017-01-16T07:52:50.748Z,192
2017-01-16T07:53:50.415Z,200
2017-01-16T07:54:50.777Z,208
2017-01-16T07:55:50.779Z,208
2017-01-16T07:56:49.999Z,196
2017-01-16T07:57:51.198Z,200
2017-01-16T07:58:50.515Z,208
2017-01-16T07:59:50.026Z,220
2017-01-16T08:00:50.842Z,240
2017-01-16T08:01:50.446Z,248
2017-01-16T08:02:50.455Z,256
2017-01-16T08:03:50.864Z,256
2017-01-16T08:04:51.272Z,260
2017-01-16T08:05:50.893Z,268
2017-01-16T08:06:51.302Z,284
2017-01-16T08:07:51.307Z,296
2017-01-16T08:08:50.915Z,308
2017-01-16T08:09:50.533Z,316
2017-01-16T08:10:51.337Z,312
2017-01-16T08:11:50.945Z,300
2017-01-16T08:12:50.561Z,296
2017-01-16T08:13:50.572Z,300
2017-01-16T08:14:50.976Z,312
2017-01-16T08:15:50.591Z,328
2017-01-16T08:16:50.600Z,332
2017-01-16T08:17:51.018Z,328
2017-01-16T08:18:50.619Z,332
2017-01-16T08:19:51.031Z,336
2017-01-16T08:20:50.246Z,352
2017-01-16T08:21:50.653Z,352
2017-01-16T08:22:50.663Z,344
2017-01-16T08:23:50.675Z,348
2017-01-16T08:24:51.084Z,344
2017-01-16T08:25:51.105Z,336
2017-01-16T08:26:51.124Z,336
2017-01-16T08:27:51.116Z,328
2017-01-16T08:28:51.132Z,324
2017-01-16T08:29:51.135Z,316
2017-01-16T08:30:50.750Z,308
2017-01-16T08:31:51.156Z,304
2017-01-16T08:32:51.188Z,296
2017-01-16T08:33:50.781Z,292
2017-01-16T08:34:51.607Z,288
2017-01-16T08:35:50.800Z,280
2017-01-16T08:36:50.809Z,276
2017-01-16T08:37:50.425Z,272
2017-01-16T08:38:51.633Z,276
2017-01-16T08:39:50.848Z,276
2017-01-16T08:40:50.858Z,280
2017-01-16T08:41:50.477Z,284
2017-01-16T08:42:51.669Z,288
2017-01-16T08:43:50.889Z,296
2017-01-16T08:44:51.715Z,304
2017-01-16T08:45:51.346Z,320
2017-01-16T08:46:51.021Z,344
2017-01-16T08:47:51.741Z,360
2017-01-16T08:48:51.373Z,376
2017-01-16T08:49:51.349Z,404
2017-01-16T08:50:50.962Z,448
2017-01-16T08:51:51.856Z,488
2017-01-16T08:52:51.380Z,552
2017-01-16T08:53:50.998Z,600
2017-01-16T08:54:51.005Z,652
2017-01-16T08:55:51.034Z,680
2017-01-16T08:56:51.041Z,684
2017-01-16T08:57:51.060Z,676
2017-01-16T08:58:51.064Z,664
2017-01-16T08:59:51.488Z,668
2017-01-16T09:00:51.102Z,644
2017-01-16T09:01:51.085Z,632
2017-01-16T09:02:51.140Z,608
2017-01-16T09:03:51.106Z,580
2017-01-16T09:04:51.120Z,564
2017-01-16T09:05:51.133Z,544
2017-01-16T09:06:51.153Z,528
2017-01-16T09:07:51.145Z,532
2017-01-16T09:08:51.550Z,528
2017-01-16T09:09:51.965Z,524
2017-01-16T09:10:51.182Z,524
2017-01-16T09:11:51.191Z,540
2017-01-16T09:12:51.199Z,564
2017-01-16T09:13:51.214Z,596
2017-01-16T09:14:51.235Z,652
2017-01-16T09:15:51.239Z,700
2017-01-16T09:16:51.251Z,768
2017-01-16T09:17:51.678Z,832
2017-01-16T09:18:51.321Z,912
2017-01-16T09:19:51.673Z,972
2017-01-16T09:20:52.081Z,1040
2017-01-16T09:21:51.699Z,1064
2017-01-16T09:22:51.307Z,1100
2017-01-16T09:23:51.370Z,1044
2017-01-16T09:24:51.744Z,1080
2017-01-16T09:25:51.743Z,1060
2017-01-16T09:26:51.754Z,984
2017-01-16T09:27:51.762Z,940
2017-01-16T09:28:51.427Z,892
2017-01-16T09:29:52.184Z,804
2017-01-16T09:30:51.795Z,740
2017-01-16T09:31:52.203Z,688
2017-01-16T09:32:51.822Z,648
2017-01-16T09:33:51.933Z,612
2017-01-16T09:34:51.849Z,576
2017-01-16T09:35:51.852Z,548
2017-01-16T09:36:51.863Z,528
2017-01-16T09:37:51.881Z,500
2017-01-16T09:38:52.292Z,476
2017-01-16T09:39:51.896Z,456
2017-01-16T09:40:52.307Z,444
2017-01-16T09:41:51.134Z,428
2017-01-16T09:42:51.559Z,420
2017-01-16T09:43:51.145Z,416
2017-01-16T09:44:51.557Z,412
2017-01-16T09:45:51.566Z,416
2017-01-16T09:46:51.584Z,420
2017-01-16T09:47:51.589Z,428
2017-01-16T09:48:51.207Z,428
2017-01-16T09:49:52.421Z,424
2017-01-16T09:50:51.722Z,432
2017-01-16T09:51:51.239Z,432
2017-01-16T09:52:51.646Z,432
2017-01-16T09:53:52.058Z,432
2017-01-16T09:54:51.269Z,424
2017-01-16T09:55:51.680Z,416
2017-01-16T09:56:52.092Z,396
2017-01-16T09:57:52.102Z,384
2017-01-16T09:58:51.712Z,380
2017-01-16T09:59:51.721Z,368
2017-01-16T10:00:51.740Z,356
2017-01-16T10:01:52.143Z,348
2017-01-16T10:02:52.157Z,344
2017-01-16T10:03:52.176Z,344
2017-01-16T10:04:51.783Z,348
2017-01-16T10:05:52.201Z,352
2017-01-16T10:06:52.211Z,364
2017-01-16T10:07:52.216Z,380
2017-01-16T10:08:51.826Z,396
2017-01-16T10:09:52.344Z,420
2017-01-16T10:10:51.451Z,444
2017-01-16T10:11:52.656Z,456
2017-01-16T10:12:51.876Z,464
2017-01-16T10:13:51.878Z,464
2017-01-16T10:14:51.893Z,460
2017-01-16T10:15:51.903Z,452
2017-01-16T10:16:51.938Z,440
2017-01-16T10:17:52.727Z,432
2017-01-16T10:18:51.937Z,416
2017-01-16T10:19:52.751Z,408
2017-01-16T10:20:52.363Z,400
2017-01-16T10:21:52.373Z,388
2017-01-16T10:22:52.380Z,372
2017-01-16T10:23:52.001Z,360
2017-01-16T10:24:52.018Z,344
2017-01-16T10:25:52.020Z,324
2017-01-16T10:26:51.655Z,312
2017-01-16T10:27:52.843Z,304
2017-01-16T10:28:52.444Z,300
2017-01-16T10:29:52.478Z,296
2017-01-16T10:30:52.484Z,292
2017-01-16T10:31:53.085Z,284
2017-01-16T10:32:52.487Z,272
2017-01-16T10:33:52.525Z,260
2017-01-16T10:34:52.165Z,252
2017-01-16T10:35:52.557Z,240
2017-01-16T10:36:52.539Z,236
2017-01-16T10:37:52.151Z,228
2017-01-16T10:38:52.557Z,216
2017-01-16T10:39:52.179Z,204
2017-01-16T10:40:52.580Z,200
2017-01-16T10:41:52.197Z,192
2017-01-16T10:42:52.208Z,184
2017-01-16T10:43:53.017Z,184
2017-01-16T10:44:52.231Z,196
2017-01-16T10:45:52.237Z,200
2017-01-16T10:46:52.252Z,204
2017-01-16T10:47:52.668Z,224
2017-01-16T10:48:52.669Z,240
2017-01-16T10:49:52.293Z,232
2017-01-16T10:50:52.693Z,240
2017-01-16T10:51:52.902Z,248
2017-01-16T10:52:52.714Z,244
2017-01-16T10:53:53.133Z,264
2017-01-16T10:54:53.138Z,272
2017-01-16T10:55:52.757Z,296
2017-01-16T10:56:53.161Z,348
2017-01-16T10:57:53.179Z,416
2017-01-16T10:58:52.379Z,468
2017-01-16T10:59:52.796Z,540
2017-01-16T11:00:52.802Z,608
2017-01-16T11:01:52.414Z,656
2017-01-16T11:02:52.423Z,700
2017-01-16T11:03:52.441Z,712
2017-01-16T11:04:52.076Z,764
2017-01-16T11:05:52.903Z,852
2017-01-16T11:06:52.871Z,892
2017-01-16T11:07:52.494Z,892
2017-01-16T11:08:52.893Z,856
2017-01-16T11:09:52.496Z,800
2017-01-16T11:10:52.958Z,736
2017-01-16T11:11:52.526Z,676
2017-01-16T11:12:52.534Z,640
2017-01-16T11:13:52.151Z,612
2017-01-16T11:14:52.962Z,592
2017-01-16T11:15:52.963Z,568
2017-01-16T11:16:52.979Z,560
2017-01-16T11:17:52.987Z,564
2017-01-16T11:18:52.608Z,584
2017-01-16T11:19:53.025Z,588
2017-01-16T11:20:53.022Z,608
2017-01-16T11:21:52.637Z,624
2017-01-16T11:22:53.043Z,612
2017-01-16T11:23:52.656Z,604
2017-01-16T11:24:52.268Z,592
2017-01-16T11:25:52.678Z,572
2017-01-16T11:26:52.685Z,532
2017-01-16T11:27:52.796Z,528
2017-01-16T11:28:53.114Z,544
2017-01-16T11:29:53.118Z,544
2017-01-16T11:30:53.530Z,540
2017-01-16T11:31:53.149Z,540
2017-01-16T11:32:52.757Z,544
2017-01-16T11:33:53.166Z,540
2017-01-16T11:34:52.868Z,516
2017-01-16T11:35:53.202Z,484
2017-01-16T11:36:52.811Z,464
2017-01-16T11:37:52.810Z,468
2017-01-16T11:38:52.849Z,488
2017-01-16T11:39:55.176Z,484
2017-01-16T11:40:52.847Z,500
2017-01-16T11:41:53.274Z,496
2017-01-16T11:42:52.866Z,520
2017-01-16T11:43:53.277Z,536
2017-01-16T11:44:52.986Z,520
2017-01-16T11:45:53.302Z,524
2017-01-16T11:46:53.311Z,524
2017-01-16T11:47:53.322Z,520
2017-01-16T11:48:52.547Z,520
2017-01-16T11:49:53.346Z,516
2017-01-16T11:50:53.752Z,540
2017-01-16T11:51:52.967Z,580
2017-01-16T11:52:52.980Z,628
2017-01-16T11:53:53.019Z,676
2017-01-16T11:54:53.063Z,688
2017-01-16T11:55:52.621Z,712
2017-01-16T11:56:53.020Z,712
2017-01-16T11:57:53.429Z,716
2017-01-16T11:58:53.046Z,708
2017-01-16T11:59:53.553Z,684
2017-01-16T12:00:53.086Z,664
2017-01-16T12:01:53.083Z,636
2017-01-16T12:02:53.495Z,616
2017-01-16T12:03:53.100Z,608
2017-01-16T12:04:53.118Z,596
2017-01-16T12:05:53.526Z,592
2017-01-16T12:06:53.141Z,596
2017-01-16T12:07:53.946Z,580
2017-01-16T12:08:53.559Z,540
2017-01-16T12:09:52.772Z,508
2017-01-16T12:10:53.584Z,488
2017-01-16T12:11:53.192Z,480
2017-01-16T12:12:53.607Z,472
2017-01-16T12:13:54.017Z,448
2017-01-16T12:14:53.229Z,460
2017-01-16T12:15:53.641Z,480
2017-01-16T12:16:53.251Z,480
2017-01-16T12:17:53.665Z,484
2017-01-16T12:18:53.671Z,496
2017-01-16T12:19:53.285Z,476
2017-01-16T12:20:54.092Z,456
2017-01-16T12:21:53.709Z,452
2017-01-16T12:22:53.718Z,480
2017-01-16T12:23:53.935Z,520
2017-01-16T12:24:53.740Z,544
2017-01-16T12:25:53.760Z,544
2017-01-16T12:26:53.376Z,508
2017-01-16T12:27:53.379Z,476
2017-01-16T12:28:53.791Z,436
2017-01-16T12:29:53.400Z,392
2017-01-16T12:30:53.808Z,360
2017-01-16T12:31:53.823Z,348
2017-01-16T12:32:53.432Z,324
2017-01-16T12:33:54.244Z,304
2017-01-16T12:34:54.256Z,292
2017-01-16T12:35:53.866Z,296
2017-01-16T12:36:53.480Z,292
2017-01-16T12:37:53.490Z,300
2017-01-16T12:38:53.499Z,300
2017-01-16T12:39:53.912Z,324
2017-01-16T12:40:53.924Z,356
2017-01-16T12:41:54.383Z,388
2017-01-16T12:42:53.549Z,400
2017-01-16T12:43:53.957Z,416
2017-01-16T12:44:54.367Z,432
2017-01-16T12:45:53.583Z,436
2017-01-16T12:46:53.641Z,468
2017-01-16T12:47:54.005Z,500
2017-01-16T12:48:53.216Z,528
2017-01-16T12:49:54.421Z,548
2017-01-16T12:50:53.670Z,560
2017-01-16T12:51:53.649Z,564
2017-01-16T12:52:54.110Z,560
2017-01-16T12:53:53.285Z,532
2017-01-16T12:54:53.695Z,528
2017-01-16T12:55:53.704Z,532
2017-01-16T12:56:53.709Z,524
2017-01-16T12:57:54.167Z,504
2017-01-16T12:58:53.731Z,484
2017-01-16T12:59:54.149Z,452
2017-01-16T13:00:53.755Z,408
2017-01-16T13:01:54.162Z,380
2017-01-16T13:02:53.782Z,356
2017-01-16T13:03:53.790Z,352
2017-01-16T13:04:54.226Z,384
2017-01-16T13:05:53.413Z,408
2017-01-16T13:06:54.619Z,428
2017-01-16T13:07:53.886Z,452
2017-01-16T13:08:53.845Z,472
2017-01-16T13:09:53.854Z,464
2017-01-16T13:10:53.471Z,456
2017-01-16T13:11:54.279Z,420
2017-01-16T13:12:54.291Z,400
2017-01-16T13:13:53.907Z,368
2017-01-16T13:14:54.317Z,320
2017-01-16T13:15:54.324Z,284
2017-01-16T13:16:54.340Z,272
2017-01-16T13:17:53.948Z,260
2017-01-16T13:18:54.075Z,220
2017-01-16T13:19:54.372Z,212
2017-01-16T13:20:54.391Z,188
2017-01-16T13:21:54.397Z,160
2017-01-16T13:22:53.613Z,148
2017-01-16T13:23:54.071Z,144
2017-01-16T13:24:54.048Z,148
2017-01-16T13:25:54.445Z,152
2017-01-16T13:26:54.460Z,148
2017-01-16T13:27:53.670Z,148
2017-01-16T13:28:54.153Z,144
2017-01-16T13:29:54.505Z,140
2017-01-16T13:30:54.903Z,132
2017-01-16T13:31:53.719Z,128
2017-01-16T13:32:54.532Z,120
2017-01-16T13:33:54.252Z,120
2017-01-16T13:34:54.152Z,132
2017-01-16T13:35:54.964Z,120
2017-01-16T13:36:54.229Z,104
2017-01-16T13:37:54.584Z,96
2017-01-16T13:38:53.803Z,96
2017-01-16T13:39:54.231Z,108
2017-01-16T13:40:55.044Z,116
2017-01-16T13:41:54.283Z,128
2017-01-16T13:42:54.282Z,136
2017-01-16T13:43:54.266Z,132
2017-01-16T13:44:54.266Z,144
2017-01-16T13:45:54.285Z,152
2017-01-16T13:46:54.684Z,152
2017-01-16T13:47:54.319Z,152
2017-01-16T13:48:54.313Z,144
2017-01-16T13:49:53.927Z,144
2017-01-16T13:50:54.740Z,144
2017-01-16T13:51:53.949Z,152
2017-01-16T13:52:54.360Z,172
2017-01-16T13:53:54.373Z,180
2017-01-16T13:54:54.832Z,184
2017-01-16T13:55:54.789Z,188
2017-01-16T13:56:54.017Z,192
2017-01-16T13:57:54.413Z,192
2017-01-16T13:58:54.825Z,196
2017-01-16T13:59:54.068Z,200
2017-01-16T14:00:54.852Z,204
2017-01-16T14:01:54.861Z,220
2017-01-16T14:02:54.079Z,232
2017-01-16T14:03:54.886Z,240
2017-01-16T14:04:54.492Z,244
2017-01-16T14:05:55.311Z,248
2017-01-16T14:06:54.522Z,268
2017-01-16T14:07:54.926Z,292
2017-01-16T14:08:55.346Z,308
2017-01-16T14:09:54.551Z,304
2017-01-16T14:10:54.965Z,300
2017-01-16T14:11:54.978Z,292
2017-01-16T14:12:54.593Z,296
2017-01-16T14:13:54.999Z,308
2017-01-16T14:14:55.417Z,288
2017-01-16T14:15:54.633Z,260
2017-01-16T14:16:55.423Z,264